Time;durP1;ratioP1;P1;durP2;ratioP2;P2;SDS_P1;SDS_P2;PMS_P1;PMS_P2;Temp;Humidity;BMP_temperature;BMP_pressure;BME280_temperature;BME280_humidity;BME280_pressure;Samples;Min_cycle;Max_cycle;Signal;HPM_P1;HPM_P2
2022/08/23 00:04:00;;;;;;;;;;;21.30;99.90;;;;;;8394043;28;19927;-69
2022/08/23 00:08:02;;;;;;;;;;;21.20;99.90;;;;;;8400501;28;20307;-69
2022/08/23 00:12:22;;;;;;;;;;;21.10;99.90;;;;;;8399347;28;19931;-69
2022/08/23 00:16:23;;;;;;;;;;;21.10;99.90;;;;;;8408732;28;20145;-69
2022/08/23 00:20:25;;;;;;;;;;;21.00;99.90;;;;;;8390316;28;22650;-69
2022/08/23 00:24:27;;;;;;;;;;;20.90;99.90;;;;;;8404122;28;19928;-69
2022/08/23 00:28:30;;;;;;;;;;;20.90;99.90;;;;;;8398226;28;19926;-69
2022/08/23 00:32:33;;;;;;;;;;;20.80;99.90;;;;;;8405676;28;20364;-69
2022/08/23 00:36:34;;;;;;;;;;;20.80;99.90;;;;;;8394626;28;19925;-69
2022/08/23 00:40:36;;;;;;;;;;;20.70;99.90;;;;;;8400352;28;19920;-69
2022/08/23 00:49:00;;;;;;;;;;;20.60;99.90;;;;;;8387315;28;19943;-69
2022/08/23 00:53:01;;;;;;;;;;;20.50;99.90;;;;;;8401178;28;19924;-69
2022/08/23 00:57:04;;;;;;;;;;;20.50;99.90;;;;;;8401007;28;19942;-69
2022/08/23 01:01:06;;;;;;;;;;;20.40;99.90;;;;;;8389119;28;19931;-69
2022/08/23 01:05:08;;;;;;;;;;;20.40;99.90;;;;;;8381445;28;19931;-69
2022/08/23 01:09:11;;;;;;;;;;;20.30;99.90;;;;;;8367589;28;19924;-69
2022/08/23 01:13:15;;;;;;;;;;;20.30;99.90;;;;;;8389807;28;19931;-69
2022/08/23 01:17:25;;;;;;;;;;;20.20;99.90;;;;;;8391689;28;19973;-69
2022/08/23 01:21:32;;;;;;;;;;;20.20;99.90;;;;;;8401236;28;19920;-69
2022/08/23 01:25:35;;;;;;;;;;;20.20;99.90;;;;;;8404410;28;19927;-69
2022/08/23 01:29:38;;;;;;;;;;;20.20;99.90;;;;;;8403992;28;19924;-69
2022/08/23 01:33:40;;;;;;;;;;;20.10;99.90;;;;;;8379497;28;19924;-69
2022/08/23 01:37:43;;;;;;;;;;;20.10;99.90;;;;;;8402618;28;20344;-69
2022/08/23 01:41:45;;;;;;;;;;;20.00;99.90;;;;;;8390459;28;19951;-69
2022/08/23 01:45:47;;;;;;;;;;;20.00;99.90;;;;;;8409294;28;19928;-69
2022/08/23 01:49:49;;;;;;;;;;;19.90;99.90;;;;;;8392344;28;19936;-69
2022/08/23 01:53:50;;;;;;;;;;;19.90;99.90;;;;;;8386301;28;19928;-69
2022/08/23 01:57:54;;;;;;;;;;;19.90;99.90;;;;;;8392935;28;19920;-69
2022/08/23 02:01:56;;;;;;;;;;;19.90;99.90;;;;;;8395402;28;20270;-69
2022/08/23 02:05:58;;;;;;;;;;;19.90;99.90;;;;;;8383598;28;19920;-69
2022/08/23 02:10:00;;;;;;;;;;;19.90;99.90;;;;;;8377277;28;20391;-69
2022/08/23 02:14:04;;;;;;;;;;;19.90;99.90;;;;;;8386918;28;19927;-69
2022/08/23 02:18:06;;;;;;;;;;;19.90;99.90;;;;;;8395689;28;19926;-69
2022/08/23 02:22:07;;;;;;;;;;;19.80;99.90;;;;;;8384167;28;19930;-69
2022/08/23 02:26:09;;;;;;;;;;;19.80;99.90;;;;;;8394474;28;19927;-69
2022/08/23 02:30:11;;;;;;;;;;;19.80;99.90;;;;;;8395227;28;19927;-69
2022/08/23 02:34:13;;;;;;;;;;;19.80;99.90;;;;;;8392233;28;19927;-69
2022/08/23 02:38:16;;;;;;;;;;;19.70;99.90;;;;;;8398171;28;19928;-69
2022/08/23 02:42:18;;;;;;;;;;;19.70;99.90;;;;;;8403608;28;19924;-69
2022/08/23 02:46:20;;;;;;;;;;;19.60;99.90;;;;;;8395219;28;19920;-69
2022/08/23 02:50:22;;;;;;;;;;;19.50;99.90;;;;;;8395098;28;19928;-69
2022/08/23 02:54:24;;;;;;;;;;;19.40;99.90;;;;;;8378581;28;21940;-70
2022/08/23 02:58:26;;;;;;;;;;;19.40;99.90;;;;;;8390940;28;19924;-69
2022/08/23 03:02:28;;;;;;;;;;;19.40;99.90;;;;;;8393863;28;19920;-69
2022/08/23 03:06:29;;;;;;;;;;;19.40;99.90;;;;;;8398735;28;19920;-69
2022/08/23 03:10:31;;;;;;;;;;;19.40;99.90;;;;;;8357813;28;19962;-69
2022/08/23 03:14:33;;;;;;;;;;;19.40;99.90;;;;;;8406269;28;19924;-69
2022/08/23 03:18:36;;;;;;;;;;;19.30;99.90;;;;;;8377057;28;20687;-69
2022/08/23 03:22:37;;;;;;;;;;;19.30;99.90;;;;;;8406932;28;19924;-69
2022/08/23 03:26:43;;;;;;;;;;;19.30;99.90;;;;;;8385804;28;19927;-69
2022/08/23 03:30:44;;;;;;;;;;;19.30;99.90;;;;;;8403801;28;20304;-69
2022/08/23 03:34:46;;;;;;;;;;;19.30;99.90;;;;;;8401106;28;20390;-69
2022/08/23 03:38:48;;;;;;;;;;;19.30;99.90;;;;;;8396625;28;19935;-69
2022/08/23 03:42:50;;;;;;;;;;;19.30;99.90;;;;;;8396395;28;20355;-69
2022/08/23 03:46:52;;;;;;;;;;;19.30;99.90;;;;;;8406169;28;19924;-69
2022/08/23 03:50:53;;;;;;;;;;;19.30;99.90;;;;;;8388599;28;19929;-69
2022/08/23 03:54:55;;;;;;;;;;;19.30;99.90;;;;;;8400418;28;19928;-69
2022/08/23 03:58:58;;;;;;;;;;;19.30;99.90;;;;;;8398094;28;19924;-69
2022/08/23 04:03:00;;;;;;;;;;;19.30;99.90;;;;;;8400889;28;19924;-69
2022/08/23 04:07:01;;;;;;;;;;;19.30;99.90;;;;;;8389046;28;19980;-69
2022/08/23 04:11:03;;;;;;;;;;;19.30;99.90;;;;;;8376767;28;19986;-69
2022/08/23 04:15:05;;;;;;;;;;;19.30;99.90;;;;;;8402901;28;20214;-69
2022/08/23 04:19:08;;;;;;;;;;;19.30;99.90;;;;;;8399101;28;19926;-69
2022/08/23 04:23:09;;;;;;;;;;;19.30;99.90;;;;;;8397394;28;19923;-69
2022/08/23 04:27:12;;;;;;;;;;;19.30;99.90;;;;;;8400073;28;19927;-69
2022/08/23 04:31:14;;;;;;;;;;;19.30;99.90;;;;;;8395140;28;19928;-69
2022/08/23 04:35:16;;;;;;;;;;;19.30;99.90;;;;;;8397093;28;19931;-69
2022/08/23 04:39:17;;;;;;;;;;;19.30;99.90;;;;;;8394660;28;20302;-69
2022/08/23 04:43:20;;;;;;;;;;;19.30;99.90;;;;;;8398698;28;19921;-70
2022/08/23 04:47:22;;;;;;;;;;;19.30;99.90;;;;;;8389186;28;19924;-69
2022/08/23 04:51:24;;;;;;;;;;;19.30;99.90;;;;;;8396666;28;20399;-69
2022/08/23 04:55:26;;;;;;;;;;;19.30;99.90;;;;;;8397723;28;20442;-69
2022/08/23 04:59:27;;;;;;;;;;;19.30;99.90;;;;;;8401620;28;19919;-69
2022/08/23 05:03:30;;;;;;;;;;;19.30;99.90;;;;;;8424001;27;19919;-69
2022/08/23 05:07:32;;;;;;;;;;;19.40;99.90;;;;;;8400483;28;20259;-69
2022/08/23 05:11:43;;;;;;;;;;;19.40;99.90;;;;;;8407620;28;20355;-69
2022/08/23 05:15:44;;;;;;;;;;;19.40;99.90;;;;;;8413773;28;20367;-69
2022/08/23 05:19:46;;;;;;;;;;;19.40;99.90;;;;;;8412907;28;19946;-69
2022/08/23 05:23:48;;;;;;;;;;;19.40;99.90;;;;;;8423618;28;19967;-69
2022/08/23 05:27:55;;;;;;;;;;;19.40;99.90;;;;;;8419212;28;19920;-69
2022/08/23 05:37:00;;;;;;;;;;;19.40;99.90;;;;;;8409079;28;20309;-69
2022/08/23 05:41:02;;;;;;;;;;;19.40;99.90;;;;;;8431070;28;19920;-69
2022/08/23 05:45:06;;;;;;;;;;;19.40;99.90;;;;;;8421495;28;19929;-69
2022/08/23 05:49:08;;;;;;;;;;;19.50;99.90;;;;;;8422165;28;20393;-69
2022/08/23 05:53:10;;;;;;;;;;;19.50;99.90;;;;;;8427960;27;20366;-69
2022/08/23 05:57:11;;;;;;;;;;;19.60;99.90;;;;;;8424638;28;20010;-69
2022/08/23 06:01:13;;;;;;;;;;;19.60;99.90;;;;;;8425148;28;19927;-69
2022/08/23 06:05:16;;;;;;;;;;;19.60;99.90;;;;;;8416457;28;19931;-69
2022/08/23 06:09:18;;;;;;;;;;;19.70;99.90;;;;;;8411770;28;19927;-69
2022/08/23 06:13:19;;;;;;;;;;;19.70;99.90;;;;;;8432274;28;19919;-69
2022/08/23 06:17:21;;;;;;;;;;;19.80;99.90;;;;;;8437196;27;19932;-69
2022/08/23 06:21:23;;;;;;;;;;;19.80;99.90;;;;;;8421651;28;19965;-69
2022/08/23 06:25:25;;;;;;;;;;;19.90;99.90;;;;;;8436539;28;19919;-69
2022/08/23 06:34:48;;;;;;;;;;;20.00;99.90;;;;;;8424274;28;19955;-69
2022/08/23 06:38:51;;;;;;;;;;;20.00;99.90;;;;;;8401929;28;19919;-69
2022/08/23 06:42:53;;;;;;;;;;;20.00;99.90;;;;;;8435522;28;19926;-69
2022/08/23 06:46:56;;;;;;;;;;;20.10;99.90;;;;;;8420758;28;20972;-69
2022/08/23 06:50:57;;;;;;;;;;;20.10;99.90;;;;;;8424643;28;19921;-69
2022/08/23 06:55:01;;;;;;;;;;;20.10;99.90;;;;;;8437451;28;19921;-69
2022/08/23 06:59:05;;;;;;;;;;;20.20;99.90;;;;;;8394017;28;19959;-69
2022/08/23 07:03:06;;;;;;;;;;;20.20;99.90;;;;;;8434300;28;19927;-69
2022/08/23 07:07:08;;;;;;;;;;;20.30;99.90;;;;;;8379451;28;20346;-69
2022/08/23 07:11:12;;;;;;;;;;;20.40;99.90;;;;;;8398522;28;19986;-69
2022/08/23 07:15:14;;;;;;;;;;;20.50;99.90;;;;;;8384246;28;19928;-69
2022/08/23 07:19:20;;;;;;;;;;;20.70;99.90;;;;;;8408968;28;20008;-69
2022/08/23 07:23:22;;;;;;;;;;;20.80;99.90;;;;;;8401376;28;19928;-69
2022/08/23 07:27:24;;;;;;;;;;;21.00;99.90;;;;;;8389206;28;20624;-69
2022/08/23 07:31:27;;;;;;;;;;;21.10;99.90;;;;;;8380968;28;19921;-69
2022/08/23 07:35:29;;;;;;;;;;;21.20;99.90;;;;;;8383266;28;20566;-69
2022/08/23 07:39:31;;;;;;;;;;;21.30;99.90;;;;;;8368277;28;19920;-70
2022/08/23 07:43:33;;;;;;;;;;;21.50;99.90;;;;;;8412857;28;19920;-69
2022/08/23 07:47:34;;;;;;;;;;;21.60;99.90;;;;;;8400652;28;20015;-70
2022/08/23 07:51:37;;;;;;;;;;;21.70;99.90;;;;;;8398959;28;20315;-70
2022/08/23 08:00:43;;;;;;;;;;;22.00;99.90;;;;;;8398338;28;20410;-69
2022/08/23 08:04:44;;;;;;;;;;;22.10;99.90;;;;;;8381582;28;19995;-70
2022/08/23 08:08:47;;;;;;;;;;;22.20;99.90;;;;;;8386291;28;19920;-70
2022/08/23 08:12:48;;;;;;;;;;;22.30;99.90;;;;;;8404781;28;19921;-69
2022/08/23 08:16:51;;;;;;;;;;;22.40;99.90;;;;;;8374070;28;19920;-69
2022/08/23 08:20:52;;;;;;;;;;;22.50;99.90;;;;;;8387236;28;20383;-70
2022/08/23 08:24:54;;;;;;;;;;;22.50;99.90;;;;;;8373842;28;19920;-69
2022/08/23 08:28:56;;;;;;;;;;;22.60;99.90;;;;;;8402795;28;19920;-70
2022/08/23 08:32:57;;;;;;;;;;;22.70;99.90;;;;;;8384610;28;20011;-70
2022/08/23 08:36:59;;;;;;;;;;;22.70;99.90;;;;;;8374329;28;19920;-70
2022/08/23 08:41:15;;;;;;;;;;;22.80;99.90;;;;;;8398105;28;19927;-70
2022/08/23 08:45:24;;;;;;;;;;;22.90;99.90;;;;;;8414479;28;19924;-70
2022/08/23 08:49:31;;;;;;;;;;;23.00;99.90;;;;;;8370325;28;20026;-70
2022/08/23 08:53:36;;;;;;;;;;;23.00;99.90;;;;;;8388730;28;19921;-70
2022/08/23 08:57:40;;;;;;;;;;;23.10;99.90;;;;;;8396417;28;19985;-70
2022/08/23 09:01:42;;;;;;;;;;;23.10;99.90;;;;;;8434187;28;20267;-69
2022/08/23 09:06:00;;;;;;;;;;;23.20;99.90;;;;;;8421582;28;19919;-70
2022/08/23 09:10:11;;;;;;;;;;;23.20;99.90;;;;;;8422913;28;19926;-70
2022/08/23 09:14:48;;;;;;;;;;;23.20;99.90;;;;;;8453692;27;19923;-70
2022/08/23 09:18:50;;;;;;;;;;;23.20;99.90;;;;;;8340413;28;20263;-69
2022/08/23 09:22:57;;;;;;;;;;;23.20;99.90;;;;;;8410161;28;19932;-69
2022/08/23 09:26:59;;;;;;;;;;;23.20;99.90;;;;;;8436384;28;19968;-69
2022/08/23 09:31:02;;;;;;;;;;;23.30;99.90;;;;;;8429392;28;19928;-70
2022/08/23 09:35:10;;;;;;;;;;;23.30;99.90;;;;;;8432529;28;20018;-70
2022/08/23 09:39:29;;;;;;;;;;;23.30;99.90;;;;;;8423736;28;19926;-70
2022/08/23 09:43:41;;;;;;;;;;;23.40;99.90;;;;;;8427305;28;19920;-70
2022/08/23 09:47:43;;;;;;;;;;;23.50;99.90;;;;;;8433453;28;22315;-74
2022/08/23 09:51:46;;;;;;;;;;;23.50;99.90;;;;;;8453274;28;19980;-74
2022/08/23 09:55:49;;;;;;;;;;;23.60;99.90;;;;;;8445177;28;19924;-77
2022/08/23 09:59:54;;;;;;;;;;;23.80;99.90;;;;;;8410207;28;19927;-73
2022/08/23 10:04:09;;;;;;;;;;;23.80;99.90;;;;;;8425056;28;19931;-73
2022/08/23 10:08:20;;;;;;;;;;;23.90;99.90;;;;;;8430030;27;19927;-74
2022/08/23 10:12:22;;;;;;;;;;;24.00;99.90;;;;;;8421281;28;19995;-74
2022/08/23 10:16:24;;;;;;;;;;;24.20;99.90;;;;;;8418777;28;19980;-74
2022/08/23 10:20:40;;;;;;;;;;;24.20;99.90;;;;;;8422099;28;19972;-73
2022/08/23 10:24:46;;;;;;;;;;;24.40;99.90;;;;;;8423963;28;19920;-74
2022/08/23 10:33:14;;;;;;;;;;;24.50;99.90;;;;;;8445291;28;20554;-73
2022/08/23 10:37:44;;;;;;;;;;;24.70;99.90;;;;;;8414478;28;19928;-74
2022/08/23 10:41:45;;;;;;;;;;;24.80;99.90;;;;;;8423905;28;19924;-74
2022/08/23 10:45:47;;;;;;;;;;;24.90;99.90;;;;;;8441989;28;20242;-73
2022/08/23 10:49:50;;;;;;;;;;;25.10;99.90;;;;;;8415684;28;19920;-73
2022/08/23 10:53:58;;;;;;;;;;;25.20;99.90;;;;;;8432017;28;20419;-73
2022/08/23 10:58:05;;;;;;;;;;;25.20;99.90;;;;;;8441049;28;19920;-74
2022/08/23 11:02:06;;;;;;;;;;;25.30;99.90;;;;;;8430674;28;20286;-74
2022/08/23 11:06:22;;;;;;;;;;;25.40;99.90;;;;;;8440726;28;19924;-74
2022/08/23 11:10:28;;;;;;;;;;;25.50;99.90;;;;;;8419251;28;19920;-73
2022/08/23 11:14:30;;;;;;;;;;;25.50;99.90;;;;;;8401616;28;20362;-73
2022/08/23 11:18:44;;;;;;;;;;;25.60;99.90;;;;;;8444483;28;19943;-74
2022/08/23 11:22:55;;;;;;;;;;;25.70;99.90;;;;;;8431212;28;19931;-74
2022/08/23 11:26:57;;;;;;;;;;;25.80;99.90;;;;;;8443363;28;19924;-73
2022/08/23 11:31:07;;;;;;;;;;;25.90;99.90;;;;;;8427429;28;19927;-73
2022/08/23 11:35:22;;;;;;;;;;;26.00;99.90;;;;;;8445084;28;19920;-74
2022/08/23 11:39:23;;;;;;;;;;;26.10;99.90;;;;;;8429045;28;19920;-73
2022/08/23 11:43:31;;;;;;;;;;;26.20;99.90;;;;;;8448040;28;19960;-74
2022/08/23 11:47:42;;;;;;;;;;;26.30;99.90;;;;;;8450466;28;19920;-73
2022/08/23 11:52:03;;;;;;;;;;;26.30;99.90;;;;;;8442374;28;19924;-73
2022/08/23 11:56:08;;;;;;;;;;;26.30;99.90;;;;;;8442152;28;19926;-74
2022/08/23 12:00:19;;;;;;;;;;;26.30;99.90;;;;;;8440972;28;19943;-74
2022/08/23 12:04:41;;;;;;;;;;;26.50;99.90;;;;;;8451017;27;19920;-74
2022/08/23 12:08:48;;;;;;;;;;;26.60;99.90;;;;;;8429487;28;19920;-73
2022/08/23 12:13:10;;;;;;;;;;;26.70;99.90;;;;;;8409921;28;19931;-75
2022/08/23 12:17:15;;;;;;;;;;;26.80;99.90;;;;;;8397545;28;20054;-75
2022/08/23 12:21:32;;;;;;;;;;;26.80;99.90;;;;;;8405886;28;20031;-74
2022/08/23 12:25:34;;;;;;;;;;;26.70;99.90;;;;;;8425540;28;19919;-74
2022/08/23 12:29:39;;;;;;;;;;;26.70;99.90;;;;;;8422625;28;19920;-73
2022/08/23 12:33:40;;;;;;;;;;;26.70;99.90;;;;;;8443160;28;19935;-74
2022/08/23 12:37:50;;;;;;;;;;;26.70;99.90;;;;;;8414467;28;19958;-74
2022/08/23 12:41:54;;;;;;;;;;;26.70;99.90;;;;;;8446312;28;20363;-74
2022/08/23 12:45:59;;;;;;;;;;;26.70;99.90;;;;;;8433540;28;20252;-74
2022/08/23 12:50:08;;;;;;;;;;;26.80;99.90;;;;;;8424088;28;19960;-74
2022/08/23 13:04:31;;;;;;;;;;;27.00;99.90;;;;;;8398859;28;19967;-75
2022/08/23 13:08:32;;;;;;;;;;;27.00;99.90;;;;;;8409235;28;19920;-74
2022/08/23 13:17:38;;;;;;;;;;;27.00;99.90;;;;;;8398168;28;20295;-74
2022/08/23 13:21:40;;;;;;;;;;;27.10;99.90;;;;;;8393491;28;19927;-74
2022/08/23 13:25:41;;;;;;;;;;;27.00;99.90;;;;;;8396141;28;19920;-73
2022/08/23 13:29:50;;;;;;;;;;;27.00;99.90;;;;;;8393092;28;19921;-74
2022/08/23 13:33:52;;;;;;;;;;;26.90;99.90;;;;;;8394997;28;19931;-74
2022/08/23 13:37:56;;;;;;;;;;;26.90;99.90;;;;;;8394139;28;19927;-75
2022/08/23 13:41:58;;;;;;;;;;;26.80;99.90;;;;;;8396628;28;19924;-74
2022/08/23 13:46:09;;;;;;;;;;;26.80;99.90;;;;;;8394923;28;19924;-74
2022/08/23 13:50:17;;;;;;;;;;;26.80;99.90;;;;;;8405503;28;19924;-75
2022/08/23 13:54:18;;;;;;;;;;;26.90;99.90;;;;;;8406859;28;20364;-73
2022/08/23 13:58:29;;;;;;;;;;;27.00;99.90;;;;;;8399346;28;19921;-74
2022/08/23 14:02:30;;;;;;;;;;;27.00;99.90;;;;;;8420740;28;20352;-74
2022/08/23 14:06:32;;;;;;;;;;;27.00;99.90;;;;;;8431415;28;19927;-75
2022/08/23 14:10:34;;;;;;;;;;;27.10;99.90;;;;;;8435589;28;20362;-74
2022/08/23 14:14:36;;;;;;;;;;;27.00;99.90;;;;;;8442026;28;19930;-74
2022/08/23 14:18:38;;;;;;;;;;;27.00;99.90;;;;;;8429125;28;19930;-75
2022/08/23 14:22:59;;;;;;;;;;;27.00;99.90;;;;;;8435003;28;19924;-75
2022/08/23 14:27:06;;;;;;;;;;;26.90;99.90;;;;;;8426328;28;19927;-75
2022/08/23 14:31:08;;;;;;;;;;;26.90;99.90;;;;;;8440148;28;19978;-74
2022/08/23 14:35:10;;;;;;;;;;;26.90;99.90;;;;;;8406513;28;19920;-74
2022/08/23 14:39:11;;;;;;;;;;;27.00;99.90;;;;;;8424380;28;19927;-75
2022/08/23 14:43:17;;;;;;;;;;;27.10;99.90;;;;;;8433321;28;20007;-75
2022/08/23 14:47:19;;;;;;;;;;;27.30;99.90;;;;;;8421834;28;20247;-74
2022/08/23 14:51:47;;;;;;;;;;;27.50;99.90;;;;;;8433679;28;20397;-74
2022/08/23 14:55:52;;;;;;;;;;;27.70;99.90;;;;;;8405770;28;19927;-74
2022/08/23 15:00:13;;;;;;;;;;;27.80;99.90;;;;;;8428589;28;19924;-74
2022/08/23 15:04:16;;;;;;;;;;;28.00;99.90;;;;;;8426157;28;20240;-75
2022/08/23 15:08:19;;;;;;;;;;;28.10;99.90;;;;;;8426385;28;19927;-74
2022/08/23 15:12:22;;;;;;;;;;;28.30;99.90;;;;;;8425524;28;19927;-75
2022/08/23 15:27:04;;;;;;;;;;;28.00;99.90;;;;;;8422921;28;19915;-74
2022/08/23 15:31:06;;;;;;;;;;;27.80;99.90;;;;;;8435214;28;19928;-75
2022/08/23 15:35:08;;;;;;;;;;;27.80;99.90;;;;;;8456262;27;20342;-75
2022/08/23 15:39:10;;;;;;;;;;;27.80;99.90;;;;;;8418452;28;20157;-75
2022/08/23 15:43:11;;;;;;;;;;;27.60;99.90;;;;;;8425187;28;19921;-74
2022/08/23 15:47:17;;;;;;;;;;;27.60;99.90;;;;;;8415074;28;19927;-75
2022/08/23 15:51:19;;;;;;;;;;;27.80;99.90;;;;;;8412160;28;19934;-74
2022/08/23 15:55:21;;;;;;;;;;;28.40;99.90;;;;;;8408019;28;19927;-74
2022/08/23 15:59:22;;;;;;;;;;;29.10;99.90;;;;;;8397515;28;19947;-75
2022/08/23 16:03:24;;;;;;;;;;;29.80;99.90;;;;;;8421816;28;19928;-74
2022/08/23 16:07:26;;;;;;;;;;;30.20;99.90;;;;;;8407297;28;20329;-75
2022/08/23 16:11:27;;;;;;;;;;;30.30;99.90;;;;;;8398458;28;19935;-74
2022/08/23 16:15:29;;;;;;;;;;;30.00;99.90;;;;;;8386488;28;20280;-74
2022/08/23 16:19:31;;;;;;;;;;;30.10;99.90;;;;;;8395449;28;20036;-75
2022/08/23 16:23:33;;;;;;;;;;;30.30;99.90;;;;;;8392272;28;19967;-75
2022/08/23 16:27:35;;;;;;;;;;;30.50;99.90;;;;;;8385579;28;19927;-75
2022/08/23 16:31:38;;;;;;;;;;;30.70;99.90;;;;;;8409493;27;19928;-75
2022/08/23 16:35:40;;;;;;;;;;;31.10;99.90;;;;;;8392599;28;19939;-75
2022/08/23 16:39:43;;;;;;;;;;;31.30;99.90;;;;;;8390955;28;19931;-75
2022/08/23 16:43:45;;;;;;;;;;;31.60;99.90;;;;;;8394307;28;19927;-75
2022/08/23 16:47:47;;;;;;;;;;;31.80;99.90;;;;;;8391059;28;19924;-75
2022/08/23 16:51:49;;;;;;;;;;;31.90;99.90;;;;;;8387384;28;19932;-75
2022/08/23 17:06:04;;;;;;;;;;;32.10;99.90;;;;;;8363367;28;20286;-75
2022/08/23 17:10:07;;;;;;;;;;;31.90;99.90;;;;;;8362187;28;19927;-75
2022/08/23 17:14:11;;;;;;;;;;;31.80;99.90;;;;;;8366909;28;19932;-76
2022/08/23 17:18:12;;;;;;;;;;;31.70;99.90;;;;;;8351214;28;19962;-75
2022/08/23 17:22:14;;;;;;;;;;;31.70;99.90;;;;;;8357655;28;19983;-75
2022/08/23 17:26:17;;;;;;;;;;;31.60;99.90;;;;;;8361229;28;19920;-75
2022/08/23 17:30:21;;;;;;;;;;;31.50;99.90;;;;;;8356138;28;19932;-75
2022/08/23 17:34:23;;;;;;;;;;;31.50;99.90;;;;;;8357779;28;19925;-76
2022/08/23 17:38:25;;;;;;;;;;;31.40;99.90;;;;;;8354012;28;19936;-76
2022/08/23 17:42:26;;;;;;;;;;;31.10;99.90;;;;;;8350577;28;19920;-75
2022/08/23 17:46:28;;;;;;;;;;;30.70;99.90;;;;;;8362389;28;20359;-74
2022/08/23 17:50:30;;;;;;;;;;;30.40;99.90;;;;;;8357458;28;19960;-74
2022/08/23 17:54:32;;;;;;;;;;;30.10;99.90;;;;;;8360952;28;19927;-74
2022/08/23 17:58:33;;;;;;;;;;;29.80;99.90;;;;;;8367347;28;19925;-74
2022/08/23 18:02:35;;;;;;;;;;;29.40;99.90;;;;;;8362766;28;19927;-74
2022/08/23 18:06:37;;;;;;;;;;;29.20;99.90;;;;;;8427056;27;19928;-75
2022/08/23 18:10:39;;;;;;;;;;;28.90;99.90;;;;;;8386270;28;20326;-74
2022/08/23 18:14:41;;;;;;;;;;;28.70;99.90;;;;;;8387562;28;19928;-74
2022/08/23 18:18:42;;;;;;;;;;;28.50;99.90;;;;;;8391316;28;19924;-74
2022/08/23 18:22:44;;;;;;;;;;;28.30;99.90;;;;;;8383707;28;19920;-74
2022/08/23 18:31:06;;;;;;;;;;;28.10;99.90;;;;;;8389969;28;19924;-73
2022/08/23 18:35:08;;;;;;;;;;;27.90;99.90;;;;;;8390604;28;19920;-73
2022/08/23 18:39:11;;;;;;;;;;;27.80;99.90;;;;;;8393469;28;20338;-73
2022/08/23 18:43:12;;;;;;;;;;;27.70;99.90;;;;;;8426362;27;20287;-73
2022/08/23 18:47:14;;;;;;;;;;;27.60;99.90;;;;;;8424584;27;19928;-73
2022/08/23 18:51:15;;;;;;;;;;;27.50;99.90;;;;;;8392095;28;19931;-73
2022/08/23 18:55:19;;;;;;;;;;;27.50;99.90;;;;;;8399476;28;20512;-73
2022/08/23 18:59:20;;;;;;;;;;;27.40;99.90;;;;;;8400595;28;19928;-73
2022/08/23 19:03:22;;;;;;;;;;;27.30;99.90;;;;;;8393105;28;19924;-73
2022/08/23 19:07:24;;;;;;;;;;;27.20;99.90;;;;;;8395556;28;19931;-74
2022/08/23 19:11:26;;;;;;;;;;;27.10;99.90;;;;;;8387675;28;20268;-73
2022/08/23 19:15:28;;;;;;;;;;;27.10;99.90;;;;;;8389355;28;19927;-73
2022/08/23 19:19:30;;;;;;;;;;;27.00;99.90;;;;;;8400298;28;19924;-73
2022/08/23 19:23:32;;;;;;;;;;;26.90;99.90;;;;;;8382693;28;20375;-73
2022/08/23 19:27:34;;;;;;;;;;;26.90;99.90;;;;;;8382194;28;20426;-73
2022/08/23 19:31:41;;;;;;;;;;;26.90;99.90;;;;;;8378636;28;20272;-73
2022/08/23 19:35:43;;;;;;;;;;;26.80;99.90;;;;;;8389472;28;19925;-74
2022/08/23 19:39:45;;;;;;;;;;;26.70;99.90;;;;;;8381379;28;19927;-73
2022/08/23 19:43:46;;;;;;;;;;;26.70;99.90;;;;;;8381270;28;19924;-74
2022/08/23 19:47:48;;;;;;;;;;;26.60;99.90;;;;;;8381472;28;19920;-73
2022/08/23 19:51:50;;;;;;;;;;;26.50;99.90;;;;;;8379970;28;20418;-73
2022/08/23 19:55:51;;;;;;;;;;;26.40;99.90;;;;;;8383219;28;19927;-72
2022/08/23 19:59:57;;;;;;;;;;;26.40;99.90;;;;;;8392035;28;19931;-74
2022/08/23 20:04:00;;;;;;;;;;;26.30;99.90;;;;;;8388218;28;19920;-73
2022/08/23 20:08:02;;;;;;;;;;;26.30;99.90;;;;;;8390565;28;19924;-74
2022/08/23 20:12:03;;;;;;;;;;;26.20;99.90;;;;;;8387033;28;19928;-74
2022/08/23 20:16:05;;;;;;;;;;;26.20;99.90;;;;;;8386024;28;20279;-73
2022/08/23 20:20:08;;;;;;;;;;;26.20;99.90;;;;;;8384337;28;20383;-73
2022/08/23 20:24:11;;;;;;;;;;;26.10;99.90;;;;;;8390494;28;19928;-74
2022/08/23 20:28:12;;;;;;;;;;;26.10;99.90;;;;;;8391021;28;19932;-73
2022/08/23 20:32:14;;;;;;;;;;;26.00;99.90;;;;;;8388356;28;19920;-73
2022/08/23 20:36:16;;;;;;;;;;;26.00;99.90;;;;;;8391461;28;20439;-74
2022/08/23 20:40:19;;;;;;;;;;;26.00;99.90;;;;;;8387303;28;19925;-73
2022/08/23 20:44:21;;;;;;;;;;;25.90;99.90;;;;;;8390507;28;20240;-73
2022/08/23 20:48:23;;;;;;;;;;;25.80;99.90;;;;;;8387982;28;19924;-73
2022/08/23 20:52:24;;;;;;;;;;;25.80;99.90;;;;;;8383525;28;19924;-73
2022/08/23 20:56:29;;;;;;;;;;;25.70;99.90;;;;;;8390833;28;19931;-73
2022/08/23 21:00:31;;;;;;;;;;;25.60;99.90;;;;;;8386740;28;20287;-73
2022/08/23 21:04:32;;;;;;;;;;;25.50;99.90;;;;;;8417244;28;20268;-74
2022/08/23 21:08:35;;;;;;;;;;;25.40;99.90;;;;;;8418108;28;19982;-74
2022/08/23 21:12:44;;;;;;;;;;;25.30;99.90;;;;;;8408533;28;19985;-74
2022/08/23 21:16:46;;;;;;;;;;;25.20;99.90;;;;;;8415522;28;20006;-73
2022/08/23 21:20:48;;;;;;;;;;;25.10;99.90;;;;;;8423004;28;20405;-73
2022/08/23 21:24:50;;;;;;;;;;;24.90;99.90;;;;;;8406897;28;20382;-73
2022/08/23 21:28:51;;;;;;;;;;;24.90;99.90;;;;;;8405852;28;19930;-73
2022/08/23 21:32:53;;;;;;;;;;;24.80;99.90;;;;;;8409639;28;20295;-73
2022/08/23 21:36:55;;;;;;;;;;;24.70;99.90;;;;;;8417455;28;20441;-74
2022/08/23 21:40:57;;;;;;;;;;;24.60;99.90;;;;;;8424662;28;20302;-74
2022/08/23 21:44:59;;;;;;;;;;;24.50;99.90;;;;;;8415834;28;19920;-73
2022/08/23 21:49:00;;;;;;;;;;;24.50;99.90;;;;;;8433494;27;19928;-73
2022/08/23 21:53:02;;;;;;;;;;;24.40;99.90;;;;;;8406972;28;19998;-73
2022/08/23 21:57:04;;;;;;;;;;;24.40;99.90;;;;;;8449153;27;19920;-73
2022/08/23 22:01:07;;;;;;;6.90;3.80;;;24.20;99.90;;;;;;8421528;28;19927;-73
2022/08/23 22:05:09;;;;;;;5.95;3.58;;;24.20;99.90;;;;;;8403213;28;19925;-73
2022/08/23 22:09:14;;;;;;;5.30;3.60;;;24.10;99.90;;;;;;8421957;28;20056;-74
2022/08/23 22:13:16;;;;;;;8.10;4.50;;;23.90;99.90;;;;;;8401163;28;20071;-74
2022/08/23 22:17:18;;;;;;;6.95;4.50;;;23.80;99.90;;;;;;8416051;28;20056;-74
2022/08/23 22:21:19;;;;;;;;;;;23.80;99.90;;;;;;8419512;28;20765;-73
2022/08/23 22:25:21;;;;;;;;;;;23.80;99.90;;;;;;8409236;28;19919;-73
2022/08/23 22:29:23;;;;;;;;;;;23.80;99.90;;;;;;8414304;28;19920;-73
2022/08/23 22:33:25;;;;;;;;;;;23.80;99.90;;;;;;8413475;28;19981;-73
2022/08/23 22:37:27;;;;;;;;;;;23.70;99.90;;;;;;8407958;28;19925;-73
2022/08/23 22:41:29;;;;;;;;;;;23.70;99.90;;;;;;8420994;28;20010;-74
2022/08/23 22:45:31;;;;;;;;;;;23.60;99.90;;;;;;8417748;28;19920;-73
2022/08/23 22:49:33;;;;;;;6.63;3.43;;;23.60;99.90;;;;;;8402070;28;19935;-73
2022/08/23 22:53:35;;;;;;;;;;;23.50;99.90;;;;;;8417171;28;19931;-74
2022/08/23 22:57:37;;;;;;;;;;;23.40;99.90;;;;;;8403691;28;19924;-73
2022/08/23 23:01:40;;;;;;;;;;;23.40;99.90;;;;;;8410449;28;19928;-73
2022/08/23 23:05:42;;;;;;;;;;;23.40;99.90;;;;;;8421828;28;20340;-73
2022/08/23 23:09:44;;;;;;;;;;;23.30;99.90;;;;;;8416712;28;19931;-74
2022/08/23 23:13:46;;;;;;;;;;;23.30;99.90;;;;;;8408031;28;20307;-73
2022/08/23 23:17:47;;;;;;;;;;;23.20;99.90;;;;;;8409271;28;20015;-73
2022/08/23 23:21:51;;;;;;;;;;;23.20;99.90;;;;;;8414738;28;19924;-73
2022/08/23 23:25:53;;;;;;;;;;;23.10;99.90;;;;;;8407046;28;19959;-73
2022/08/23 23:29:54;;;;;;;;;;;23.10;99.90;;;;;;8411922;28;20299;-73
2022/08/23 23:33:56;;;;;;;;;;;23.10;99.90;;;;;;8414511;28;19927;-73
2022/08/23 23:37:58;;;;;;;;;;;23.00;99.90;;;;;;8416876;28;19924;-74
2022/08/23 23:41:59;;;;;;;;;;;23.00;99.90;;;;;;8422155;28;20362;-73
2022/08/23 23:46:05;;;;;;;;;;;22.90;99.90;;;;;;8418672;28;20320;-73
2022/08/23 23:50:08;;;;;;;;;;;22.80;99.90;;;;;;8426441;28;19950;-74
2022/08/23 23:54:09;;;;;;;;;;;22.80;99.90;;;;;;8419718;28;20390;-73
2022/08/23 23:58:11;;;;;;;;;;;22.70;99.90;;;;;;8421761;28;19931;-73
